sensor_id;sensor_type;location;lat;lon;timestamp;pressure;altitude;pressure_sealevel;temperature;humidity
64292;BME280;50628;51.008;13.658;2022-07-24T00:00:46;100134.09;;;16.60;83.80
64292;BME280;50628;51.008;13.658;2022-07-24T00:05:49;100132.50;;;16.67;83.44
64292;BME280;50628;51.008;13.658;2022-07-24T00:10:51;100130.88;;;16.66;83.25
64292;BME280;50628;51.008;13.658;2022-07-24T00:15:53;100135.31;;;16.66;83.10
64292;BME280;50628;51.008;13.658;2022-07-24T00:20:56;100126.84;;;16.54;83.44
64292;BME280;50628;51.008;13.658;2022-07-24T00:25:59;100128.47;;;16.55;82.90
64292;BME280;50628;51.008;13.658;2022-07-24T00:31:01;100133.91;;;16.54;82.46
64292;BME280;50628;51.008;13.658;2022-07-24T00:36:05;100137.22;;;16.56;82.42
64292;BME280;50628;51.008;13.658;2022-07-24T00:41:06;100139.91;;;16.46;82.71
64292;BME280;50628;51.008;13.658;2022-07-24T00:46:08;100136.38;;;16.37;82.80
64292;BME280;50628;51.008;13.658;2022-07-24T00:51:11;100147.50;;;16.31;82.97
64292;BME280;50628;51.008;13.658;2022-07-24T00:56:14;100144.44;;;16.18;83.54
64292;BME280;50628;51.008;13.658;2022-07-24T01:01:16;100143.38;;;16.11;83.96
64292;BME280;50628;51.008;13.658;2022-07-24T01:06:20;100140.00;;;16.00;83.05
64292;BME280;50628;51.008;13.658;2022-07-24T01:11:22;100151.44;;;15.82;83.26
64292;BME280;50628;51.008;13.658;2022-07-24T01:16:24;100153.25;;;15.99;82.18
64292;BME280;50628;51.008;13.658;2022-07-24T01:21:27;100158.44;;;15.91;81.32
64292;BME280;50628;51.008;13.658;2022-07-24T01:26:29;100163.25;;;15.95;80.71
64292;BME280;50628;51.008;13.658;2022-07-24T01:31:32;100166.00;;;15.94;80.63
64292;BME280;50628;51.008;13.658;2022-07-24T01:36:35;100159.69;;;15.87;80.53
64292;BME280;50628;51.008;13.658;2022-07-24T01:41:37;100164.50;;;15.64;80.85
64292;BME280;50628;51.008;13.658;2022-07-24T01:46:38;100168.88;;;15.45;81.82
64292;BME280;50628;51.008;13.658;2022-07-24T01:51:42;100171.06;;;15.50;81.52
64292;BME280;50628;51.008;13.658;2022-07-24T01:56:43;100171.66;;;15.34;82.02
64292;BME280;50628;51.008;13.658;2022-07-24T02:01:45;100173.88;;;15.29;82.06
64292;BME280;50628;51.008;13.658;2022-07-24T02:06:48;100174.31;;;15.24;82.06
64292;BME280;50628;51.008;13.658;2022-07-24T02:11:50;100175.25;;;15.33;81.53
64292;BME280;50628;51.008;13.658;2022-07-24T02:16:52;100186.19;;;15.19;81.69
64292;BME280;50628;51.008;13.658;2022-07-24T02:21:55;100194.97;;;15.00;82.03
64292;BME280;50628;51.008;13.658;2022-07-24T02:26:57;100179.50;;;14.97;82.26
64292;BME280;50628;51.008;13.658;2022-07-24T02:31:59;100180.56;;;15.13;81.73
64292;BME280;50628;51.008;13.658;2022-07-24T02:37:02;100193.66;;;15.13;81.81
64292;BME280;50628;51.008;13.658;2022-07-24T02:42:04;100193.13;;;15.10;81.04
64292;BME280;50628;51.008;13.658;2022-07-24T02:47:06;100210.13;;;14.86;81.89
64292;BME280;50628;51.008;13.658;2022-07-24T02:52:09;100201.03;;;14.71;82.80
64292;BME280;50628;51.008;13.658;2022-07-24T02:57:11;100202.84;;;14.61;82.75
64292;BME280;50628;51.008;13.658;2022-07-24T03:02:13;100203.66;;;14.61;82.62
64292;BME280;50628;51.008;13.658;2022-07-24T03:07:16;100203.66;;;14.61;83.01
64292;BME280;50628;51.008;13.658;2022-07-24T03:12:17;100202.69;;;14.53;83.13
64292;BME280;50628;51.008;13.658;2022-07-24T03:17:19;100203.06;;;14.28;83.83
64292;BME280;50628;51.008;13.658;2022-07-24T03:22:22;100205.28;;;14.33;83.88
64292;BME280;50628;51.008;13.658;2022-07-24T03:27:24;100205.44;;;14.41;83.06
64292;BME280;50628;51.008;13.658;2022-07-24T03:32:26;100205.16;;;14.44;83.16
64292;BME280;50628;51.008;13.658;2022-07-24T03:37:29;100195.38;;;14.27;83.68
64292;BME280;50628;51.008;13.658;2022-07-24T03:42:31;100210.09;;;14.18;84.02
64292;BME280;50628;51.008;13.658;2022-07-24T03:47:32;100212.72;;;14.28;83.42
64292;BME280;50628;51.008;13.658;2022-07-24T03:52:35;100213.13;;;14.23;83.49
64292;BME280;50628;51.008;13.658;2022-07-24T03:57:37;100204.72;;;14.20;83.62
64292;BME280;50628;51.008;13.658;2022-07-24T04:02:39;100200.19;;;14.32;83.23
64292;BME280;50628;51.008;13.658;2022-07-24T04:07:42;100208.56;;;14.16;83.63
64292;BME280;50628;51.008;13.658;2022-07-24T04:12:44;100206.53;;;14.19;83.47
64292;BME280;50628;51.008;13.658;2022-07-24T04:17:46;100206.53;;;14.29;83.06
64292;BME280;50628;51.008;13.658;2022-07-24T04:22:49;100206.69;;;14.37;82.45
64292;BME280;50628;51.008;13.658;2022-07-24T04:27:50;100211.09;;;14.46;82.49
64292;BME280;50628;51.008;13.658;2022-07-24T04:32:52;100200.91;;;14.53;81.82
64292;BME280;50628;51.008;13.658;2022-07-24T04:37:55;100200.88;;;14.43;82.40
64292;BME280;50628;51.008;13.658;2022-07-24T04:42:57;100210.16;;;14.57;82.49
64292;BME280;50628;51.008;13.658;2022-07-24T04:47:59;100207.66;;;14.65;81.76
64292;BME280;50628;51.008;13.658;2022-07-24T04:53:02;100210.16;;;14.77;81.10
64292;BME280;50628;51.008;13.658;2022-07-24T04:58:03;100206.28;;;14.81;81.06
64292;BME280;50628;51.008;13.658;2022-07-24T05:03:05;100195.34;;;15.05;80.56
64292;BME280;50628;51.008;13.658;2022-07-24T05:08:08;100196.66;;;15.28;79.96
64292;BME280;50628;51.008;13.658;2022-07-24T05:13:10;100213.53;;;15.73;78.52
64292;BME280;50628;51.008;13.658;2022-07-24T05:18:12;100210.78;;;15.92;77.45
64292;BME280;50628;51.008;13.658;2022-07-24T05:23:15;100205.84;;;16.07;77.05
64292;BME280;50628;51.008;13.658;2022-07-24T05:28:17;100203.94;;;16.27;76.50
64292;BME280;50628;51.008;13.658;2022-07-24T05:33:19;100203.88;;;16.37;75.22
64292;BME280;50628;51.008;13.658;2022-07-24T05:38:22;100208.59;;;16.51;75.20
64292;BME280;50628;51.008;13.658;2022-07-24T05:43:23;100198.47;;;16.56;74.65
64292;BME280;50628;51.008;13.658;2022-07-24T05:48:25;100189.97;;;16.80;74.00
64292;BME280;50628;51.008;13.658;2022-07-24T05:53:28;100198.06;;;17.13;72.78
64292;BME280;50628;51.008;13.658;2022-07-24T05:58:30;100192.84;;;17.47;71.38
64292;BME280;50628;51.008;13.658;2022-07-24T06:03:32;100194.56;;;17.65;70.71
64292;BME280;50628;51.008;13.658;2022-07-24T06:08:35;100201.41;;;17.84;70.45
64292;BME280;50628;51.008;13.658;2022-07-24T06:13:37;100192.28;;;18.12;69.74
64292;BME280;50628;51.008;13.658;2022-07-24T06:18:39;100201.88;;;18.46;68.92
64292;BME280;50628;51.008;13.658;2022-07-24T06:23:42;100196.81;;;18.77;67.87
64292;BME280;50628;51.008;13.658;2022-07-24T06:28:43;100192.53;;;18.93;67.17
64292;BME280;50628;51.008;13.658;2022-07-24T06:33:45;100186.84;;;19.29;65.62
64292;BME280;50628;51.008;13.658;2022-07-24T06:38:48;100185.28;;;19.42;64.77
64292;BME280;50628;51.008;13.658;2022-07-24T06:43:50;100189.81;;;19.81;63.24
64292;BME280;50628;51.008;13.658;2022-07-24T06:48:52;100183.69;;;20.12;61.91
64292;BME280;50628;51.008;13.658;2022-07-24T06:53:55;100178.91;;;20.07;61.80
64292;BME280;50628;51.008;13.658;2022-07-24T06:58:56;100187.56;;;20.01;61.67
64292;BME280;50628;51.008;13.658;2022-07-24T07:03:59;100175.00;;;20.26;59.69
64292;BME280;50628;51.008;13.658;2022-07-24T07:09:02;100192.41;;;20.67;57.30
64292;BME280;50628;51.008;13.658;2022-07-24T07:14:04;100181.13;;;20.88;54.22
64292;BME280;50628;51.008;13.658;2022-07-24T07:19:06;100186.53;;;20.94;52.54
64292;BME280;50628;51.008;13.658;2022-07-24T07:24:09;100183.00;;;21.02;51.55
64292;BME280;50628;51.008;13.658;2022-07-24T07:29:11;100184.06;;;20.93;52.02
64292;BME280;50628;51.008;13.658;2022-07-24T07:34:13;100181.16;;;21.03;52.81
64292;BME280;50628;51.008;13.658;2022-07-24T07:39:16;100180.00;;;21.20;51.62
64292;BME280;50628;51.008;13.658;2022-07-24T07:44:18;100181.63;;;21.36;51.31
64292;BME280;50628;51.008;13.658;2022-07-24T07:49:19;100178.72;;;21.60;49.60
64292;BME280;50628;51.008;13.658;2022-07-24T07:54:23;100174.63;;;21.43;48.83
64292;BME280;50628;51.008;13.658;2022-07-24T07:59:24;100176.09;;;21.46;48.52
64292;BME280;50628;51.008;13.658;2022-07-24T08:04:26;100180.09;;;21.56;48.16
64292;BME280;50628;51.008;13.658;2022-07-24T08:09:29;100179.94;;;21.79;47.45
64292;BME280;50628;51.008;13.658;2022-07-24T08:14:31;100172.84;;;21.80;48.22
64292;BME280;50628;51.008;13.658;2022-07-24T08:19:33;100164.00;;;21.94;47.47
64292;BME280;50628;51.008;13.658;2022-07-24T08:24:36;100170.53;;;22.28;46.57
64292;BME280;50628;51.008;13.658;2022-07-24T08:29:38;100166.09;;;22.35;46.61
64292;BME280;50628;51.008;13.658;2022-07-24T08:34:40;100166.00;;;22.50;45.81
64292;BME280;50628;51.008;13.658;2022-07-24T08:39:43;100159.72;;;22.30;47.03
64292;BME280;50628;51.008;13.658;2022-07-24T08:44:45;100153.88;;;22.62;46.52
64292;BME280;50628;51.008;13.658;2022-07-24T08:49:48;100158.56;;;22.88;44.96
64292;BME280;50628;51.008;13.658;2022-07-24T08:54:55;100153.38;;;22.52;45.61
64292;BME280;50628;51.008;13.658;2022-07-24T08:59:56;100153.19;;;23.03;44.58
64292;BME280;50628;51.008;13.658;2022-07-24T09:04:59;100144.94;;;23.26;44.23
64292;BME280;50628;51.008;13.658;2022-07-24T09:15:11;100140.56;;;22.84;44.71
64292;BME280;50628;51.008;13.658;2022-07-24T09:20:13;100140.31;;;23.42;43.50
64292;BME280;50628;51.008;13.658;2022-07-24T09:25:18;100136.22;;;23.39;43.19
64292;BME280;50628;51.008;13.658;2022-07-24T09:30:29;100132.94;;;23.92;42.16
64292;BME280;50628;51.008;13.658;2022-07-24T09:35:33;100128.00;;;23.89;41.85
64292;BME280;50628;51.008;13.658;2022-07-24T09:40:38;100132.41;;;23.62;42.54
64292;BME280;50628;51.008;13.658;2022-07-24T09:45:58;100129.84;;;23.88;40.76
64292;BME280;50628;51.008;13.658;2022-07-24T09:51:02;100133.16;;;24.24;40.32
64292;BME280;50628;51.008;13.658;2022-07-24T09:56:08;100134.81;;;24.31;40.54
64292;BME280;50628;51.008;13.658;2022-07-24T10:01:10;100126.81;;;24.31;40.05
64292;BME280;50628;51.008;13.658;2022-07-24T10:06:14;100129.25;;;23.93;41.49
64292;BME280;50628;51.008;13.658;2022-07-24T10:11:19;100117.78;;;23.86;40.76
64292;BME280;50628;51.008;13.658;2022-07-24T10:16:27;100120.88;;;24.96;39.03
64292;BME280;50628;51.008;13.658;2022-07-24T10:21:31;100118.81;;;24.91;39.14
64292;BME280;50628;51.008;13.658;2022-07-24T10:26:37;100128.06;;;24.95;38.64
64292;BME280;50628;51.008;13.658;2022-07-24T10:31:40;100126.63;;;24.93;37.94
64292;BME280;50628;51.008;13.658;2022-07-24T10:36:48;100113.25;;;25.13;37.61
64292;BME280;50628;51.008;13.658;2022-07-24T10:42:04;100111.94;;;25.87;36.51
64292;BME280;50628;51.008;13.658;2022-07-24T10:47:07;100118.69;;;25.44;36.74
64292;BME280;50628;51.008;13.658;2022-07-24T10:52:11;100104.53;;;25.44;35.88
64292;BME280;50628;51.008;13.658;2022-07-24T10:57:14;100099.59;;;25.47;35.68
64292;BME280;50628;51.008;13.658;2022-07-24T11:02:27;100100.03;;;25.44;35.18
64292;BME280;50628;51.008;13.658;2022-07-24T11:07:30;100095.75;;;25.75;34.80
64292;BME280;50628;51.008;13.658;2022-07-24T11:12:41;100085.94;;;26.76;32.52
64292;BME280;50628;51.008;13.658;2022-07-24T11:17:43;100081.22;;;27.15;33.27
64292;BME280;50628;51.008;13.658;2022-07-24T11:22:48;100079.97;;;26.99;32.71
64292;BME280;50628;51.008;13.658;2022-07-24T11:27:54;100074.84;;;27.76;31.94
64292;BME280;50628;51.008;13.658;2022-07-24T11:32:59;100068.81;;;26.84;33.09
64292;BME280;50628;51.008;13.658;2022-07-24T11:38:03;100060.22;;;27.00;32.85
64292;BME280;50628;51.008;13.658;2022-07-24T11:43:07;100059.91;;;27.08;32.83
64292;BME280;50628;51.008;13.658;2022-07-24T11:48:18;100052.53;;;27.71;31.31
64292;BME280;50628;51.008;13.658;2022-07-24T11:53:20;100052.41;;;27.66;30.94
64292;BME280;50628;51.008;13.658;2022-07-24T11:58:23;100056.94;;;27.77;30.62
64292;BME280;50628;51.008;13.658;2022-07-24T12:03:25;100049.75;;;29.47;28.25
64292;BME280;50628;51.008;13.658;2022-07-24T12:08:28;100047.09;;;27.77;30.73
64292;BME280;50628;51.008;13.658;2022-07-24T12:13:32;100045.88;;;28.27;29.95
64292;BME280;50628;51.008;13.658;2022-07-24T12:18:34;100035.56;;;29.64;27.63
64292;BME280;50628;51.008;13.658;2022-07-24T12:23:35;100022.53;;;28.46;28.93
64292;BME280;50628;51.008;13.658;2022-07-24T12:28:39;100019.34;;;29.13;28.26
64292;BME280;50628;51.008;13.658;2022-07-24T12:33:52;100012.50;;;29.80;26.81
64292;BME280;50628;51.008;13.658;2022-07-24T12:38:56;100017.13;;;30.01;26.28
64292;BME280;50628;51.008;13.658;2022-07-24T12:44:01;100016.34;;;31.00;24.66
64292;BME280;50628;51.008;13.658;2022-07-24T12:49:04;100011.31;;;31.58;24.11
64292;BME280;50628;51.008;13.658;2022-07-24T12:54:06;99987.56;;;31.50;24.20
64292;BME280;50628;51.008;13.658;2022-07-24T12:59:21;99988.09;;;30.76;25.26
64292;BME280;50628;51.008;13.658;2022-07-24T13:04:25;99979.38;;;31.13;24.68
64292;BME280;50628;51.008;13.658;2022-07-24T13:09:29;99981.09;;;31.83;24.23
64292;BME280;50628;51.008;13.658;2022-07-24T13:14:32;99971.25;;;31.99;23.12
64292;BME280;50628;51.008;13.658;2022-07-24T13:19:34;99971.34;;;32.62;22.72
64292;BME280;50628;51.008;13.658;2022-07-24T13:24:37;99965.94;;;31.40;24.10
64292;BME280;50628;51.008;13.658;2022-07-24T13:29:41;99956.38;;;32.34;22.66
64292;BME280;50628;51.008;13.658;2022-07-24T13:34:43;99946.88;;;32.16;23.09
64292;BME280;50628;51.008;13.658;2022-07-24T13:39:44;99940.84;;;31.99;23.11
64292;BME280;50628;51.008;13.658;2022-07-24T13:44:47;99938.56;;;31.80;22.46
64292;BME280;50628;51.008;13.658;2022-07-24T13:49:49;99934.63;;;32.46;21.94
64292;BME280;50628;51.008;13.658;2022-07-24T13:54:51;99920.41;;;32.71;21.79
64292;BME280;50628;51.008;13.658;2022-07-24T13:59:54;99928.66;;;32.44;22.26
64292;BME280;50628;51.008;13.658;2022-07-24T14:04:56;99928.66;;;32.39;21.53
64292;BME280;50628;51.008;13.658;2022-07-24T14:09:57;99906.78;;;33.65;20.64
64292;BME280;50628;51.008;13.658;2022-07-24T14:15:00;99919.41;;;32.19;22.41
64292;BME280;50628;51.008;13.658;2022-07-24T14:20:03;99908.63;;;32.19;22.01
64292;BME280;50628;51.008;13.658;2022-07-24T14:25:06;99918.38;;;33.19;20.52
64292;BME280;50628;51.008;13.658;2022-07-24T14:30:10;99902.28;;;34.30;19.72
64292;BME280;50628;51.008;13.658;2022-07-24T14:35:12;99893.22;;;34.60;19.32
64292;BME280;50628;51.008;13.658;2022-07-24T14:40:14;99891.09;;;33.41;20.11
64292;BME280;50628;51.008;13.658;2022-07-24T14:45:17;99880.75;;;33.99;19.76
64292;BME280;50628;51.008;13.658;2022-07-24T14:50:19;99876.25;;;34.44;19.04
64292;BME280;50628;51.008;13.658;2022-07-24T14:55:21;99867.00;;;34.95;18.68
64292;BME280;50628;51.008;13.658;2022-07-24T15:00:24;99868.47;;;33.27;20.35
64292;BME280;50628;51.008;13.658;2022-07-24T15:05:26;99863.56;;;33.39;20.03
64292;BME280;50628;51.008;13.658;2022-07-24T15:10:28;99861.59;;;33.96;19.36
64292;BME280;50628;51.008;13.658;2022-07-24T15:15:31;99865.13;;;33.91;19.02
64292;BME280;50628;51.008;13.658;2022-07-24T15:20:33;99858.25;;;34.74;18.29
64292;BME280;50628;51.008;13.658;2022-07-24T15:25:35;99853.06;;;34.83;18.24
64292;BME280;50628;51.008;13.658;2022-07-24T15:30:38;99837.97;;;33.21;20.27
64292;BME280;50628;51.008;13.658;2022-07-24T15:35:39;99837.38;;;34.40;19.18
64292;BME280;50628;51.008;13.658;2022-07-24T15:40:41;99832.03;;;34.30;19.38
64292;BME280;50628;51.008;13.658;2022-07-24T15:45:44;99835.34;;;34.66;19.43
64292;BME280;50628;51.008;13.658;2022-07-24T15:50:46;99837.59;;;33.84;19.62
64292;BME280;50628;51.008;13.658;2022-07-24T15:55:48;99822.38;;;34.63;18.68
64292;BME280;50628;51.008;13.658;2022-07-24T16:00:51;99818.69;;;33.84;19.75
64292;BME280;50628;51.008;13.658;2022-07-24T16:05:53;99816.88;;;33.59;19.26
64292;BME280;50628;51.008;13.658;2022-07-24T16:10:55;99808.53;;;33.50;19.50
64292;BME280;50628;51.008;13.658;2022-07-24T16:15:58;99806.41;;;32.65;20.31
64292;BME280;50628;51.008;13.658;2022-07-24T16:21:00;99807.75;;;32.58;20.61
64292;BME280;50628;51.008;13.658;2022-07-24T16:26:02;99800.56;;;31.95;21.39
64292;BME280;50628;51.008;13.658;2022-07-24T16:31:08;99795.47;;;31.46;22.07
64292;BME280;50628;51.008;13.658;2022-07-24T16:36:10;99789.63;;;31.64;22.08
64292;BME280;50628;51.008;13.658;2022-07-24T16:41:11;99789.09;;;31.20;22.67
64292;BME280;50628;51.008;13.658;2022-07-24T16:46:18;99789.25;;;31.03;22.72
64292;BME280;50628;51.008;13.658;2022-07-24T16:51:20;99777.34;;;30.67;23.64
64292;BME280;50628;51.008;13.658;2022-07-24T16:56:22;99778.34;;;30.82;23.35
64292;BME280;50628;51.008;13.658;2022-07-24T17:01:25;99773.28;;;30.32;24.21
64292;BME280;50628;51.008;13.658;2022-07-24T17:06:26;99775.03;;;29.99;24.47
64292;BME280;50628;51.008;13.658;2022-07-24T17:11:28;99776.06;;;29.76;24.58
64292;BME280;50628;51.008;13.658;2022-07-24T17:16:31;99772.78;;;29.91;24.56
64292;BME280;50628;51.008;13.658;2022-07-24T17:21:33;99765.97;;;29.61;25.50
64292;BME280;50628;51.008;13.658;2022-07-24T17:26:35;99768.66;;;29.61;24.97
64292;BME280;50628;51.008;13.658;2022-07-24T17:31:38;99764.34;;;29.21;25.41
64292;BME280;50628;51.008;13.658;2022-07-24T17:36:40;99760.59;;;29.22;25.59
64292;BME280;50628;51.008;13.658;2022-07-24T17:41:43;99763.09;;;29.29;25.89
64292;BME280;50628;51.008;13.658;2022-07-24T17:46:46;99766.03;;;29.10;25.25
64292;BME280;50628;51.008;13.658;2022-07-24T17:51:47;99760.09;;;29.25;25.65
64292;BME280;50628;51.008;13.658;2022-07-24T17:56:49;99759.19;;;28.69;26.46
64292;BME280;50628;51.008;13.658;2022-07-24T18:01:53;99758.41;;;28.85;26.81
64292;BME280;50628;51.008;13.658;2022-07-24T18:06:54;99759.06;;;28.76;26.33
64292;BME280;50628;51.008;13.658;2022-07-24T18:11:56;99755.84;;;28.62;27.08
64292;BME280;50628;51.008;13.658;2022-07-24T18:16:59;99757.00;;;28.66;26.71
64292;BME280;50628;51.008;13.658;2022-07-24T18:22:01;99769.22;;;28.45;27.34
64292;BME280;50628;51.008;13.658;2022-07-24T18:27:03;99760.63;;;28.60;26.90
64292;BME280;50628;51.008;13.658;2022-07-24T18:32:06;99763.13;;;28.50;27.38
64292;BME280;50628;51.008;13.658;2022-07-24T18:37:08;99763.91;;;28.33;28.18
64292;BME280;50628;51.008;13.658;2022-07-24T18:42:10;99767.22;;;27.83;30.25
64292;BME280;50628;51.008;13.658;2022-07-24T18:47:13;99770.13;;;27.70;30.61
64292;BME280;50628;51.008;13.658;2022-07-24T18:52:15;99778.75;;;27.36;31.84
64292;BME280;50628;51.008;13.658;2022-07-24T18:57:17;99785.56;;;27.09;33.32
64292;BME280;50628;51.008;13.658;2022-07-24T19:02:20;99789.13;;;26.91;33.41
64292;BME280;50628;51.008;13.658;2022-07-24T19:07:22;99781.44;;;26.71;33.76
64292;BME280;50628;51.008;13.658;2022-07-24T19:12:23;99783.94;;;26.54;35.46
64292;BME280;50628;51.008;13.658;2022-07-24T19:17:26;99778.78;;;26.22;35.20
64292;BME280;50628;51.008;13.658;2022-07-24T19:22:29;99785.19;;;26.03;36.12
64292;BME280;50628;51.008;13.658;2022-07-24T19:27:31;99796.81;;;25.72;36.97
64292;BME280;50628;51.008;13.658;2022-07-24T19:32:34;99800.09;;;25.30;38.06
64292;BME280;50628;51.008;13.658;2022-07-24T19:37:38;99800.47;;;25.02;38.92
64292;BME280;50628;51.008;13.658;2022-07-24T19:42:40;99803.72;;;24.79;39.51
64292;BME280;50628;51.008;13.658;2022-07-24T19:47:43;99807.28;;;24.66;39.64
64292;BME280;50628;51.008;13.658;2022-07-24T19:52:45;99802.19;;;24.65;37.58
64292;BME280;50628;51.008;13.658;2022-07-24T19:57:46;99810.38;;;24.63;38.10
64292;BME280;50628;51.008;13.658;2022-07-24T20:02:50;99804.78;;;24.26;39.61
64292;BME280;50628;51.008;13.658;2022-07-24T20:07:51;99797.31;;;24.10;39.71
64292;BME280;50628;51.008;13.658;2022-07-24T20:12:54;99801.88;;;23.83;41.30
64292;BME280;50628;51.008;13.658;2022-07-24T20:17:57;99811.09;;;23.67;41.87
64292;BME280;50628;51.008;13.658;2022-07-24T20:22:59;99811.72;;;23.69;41.24
64292;BME280;50628;51.008;13.658;2022-07-24T20:28:01;99810.28;;;23.53;41.07
64292;BME280;50628;51.008;13.658;2022-07-24T20:33:04;99803.16;;;23.47;41.18
64292;BME280;50628;51.008;13.658;2022-07-24T20:38:06;99807.25;;;23.43;41.89
64292;BME280;50628;51.008;13.658;2022-07-24T20:43:08;99808.50;;;23.33;41.80
64292;BME280;50628;51.008;13.658;2022-07-24T20:48:11;99814.38;;;23.16;42.62
64292;BME280;50628;51.008;13.658;2022-07-24T20:53:13;99802.16;;;23.15;42.84
64292;BME280;50628;51.008;13.658;2022-07-24T20:58:15;99800.94;;;23.04;43.39
64292;BME280;50628;51.008;13.658;2022-07-24T21:03:18;99798.97;;;22.58;44.93
64292;BME280;50628;51.008;13.658;2022-07-24T21:08:20;99802.81;;;22.35;45.82
64292;BME280;50628;51.008;13.658;2022-07-24T21:13:23;99796.00;;;22.19;46.50
64292;BME280;50628;51.008;13.658;2022-07-24T21:18:26;99797.59;;;22.14;45.97
64292;BME280;50628;51.008;13.658;2022-07-24T21:23:28;99803.28;;;22.17;46.00
64292;BME280;50628;51.008;13.658;2022-07-24T21:28:30;99803.47;;;22.09;45.13
64292;BME280;50628;51.008;13.658;2022-07-24T21:33:33;99805.66;;;21.99;45.62
64292;BME280;50628;51.008;13.658;2022-07-24T21:38:35;99804.00;;;21.91;46.01
64292;BME280;50628;51.008;13.658;2022-07-24T21:43:37;99800.50;;;21.84;46.38
64292;BME280;50628;51.008;13.658;2022-07-24T21:48:40;99802.69;;;21.74;47.50
64292;BME280;50628;51.008;13.658;2022-07-24T21:53:42;99812.09;;;21.48;48.62
64292;BME280;50628;51.008;13.658;2022-07-24T21:58:44;99805.19;;;21.54;47.70
64292;BME280;50628;51.008;13.658;2022-07-24T22:03:47;99807.66;;;21.55;47.92
64292;BME280;50628;51.008;13.658;2022-07-24T22:08:48;99799.81;;;21.41;49.15
64292;BME280;50628;51.008;13.658;2022-07-24T22:13:50;99794.41;;;21.27;49.81
64292;BME280;50628;51.008;13.658;2022-07-24T22:18:54;99796.19;;;21.27;49.37
64292;BME280;50628;51.008;13.658;2022-07-24T22:23:56;99782.38;;;21.25;49.67
64292;BME280;50628;51.008;13.658;2022-07-24T22:28:57;99783.53;;;20.72;51.35
64292;BME280;50628;51.008;13.658;2022-07-24T22:34:01;99782.22;;;20.62;51.47
64292;BME280;50628;51.008;13.658;2022-07-24T22:39:04;99781.31;;;20.76;51.02
64292;BME280;50628;51.008;13.658;2022-07-24T22:44:07;99784.03;;;20.83;50.79
64292;BME280;50628;51.008;13.658;2022-07-24T22:49:10;99783.72;;;20.71;51.90
64292;BME280;50628;51.008;13.658;2022-07-24T22:54:12;99778.38;;;20.49;52.03
64292;BME280;50628;51.008;13.658;2022-07-24T22:59:14;99781.13;;;20.56;52.44
64292;BME280;50628;51.008;13.658;2022-07-24T23:04:17;99765.63;;;20.17;54.16
64292;BME280;50628;51.008;13.658;2022-07-24T23:09:19;99764.19;;;19.84;55.63
64292;BME280;50628;51.008;13.658;2022-07-24T23:14:21;99755.06;;;20.02;54.66
64292;BME280;50628;51.008;13.658;2022-07-24T23:19:24;99749.50;;;20.12;53.81
64292;BME280;50628;51.008;13.658;2022-07-24T23:24:26;99744.53;;;19.87;55.04
64292;BME280;50628;51.008;13.658;2022-07-24T23:29:27;99744.53;;;19.72;55.69
64292;BME280;50628;51.008;13.658;2022-07-24T23:34:30;99738.94;;;19.52;56.51
64292;BME280;50628;51.008;13.658;2022-07-24T23:39:32;99740.06;;;19.73;55.95
64292;BME280;50628;51.008;13.658;2022-07-24T23:44:34;99740.91;;;19.73;55.43
64292;BME280;50628;51.008;13.658;2022-07-24T23:49:37;99725.31;;;19.78;55.45
64292;BME280;50628;51.008;13.658;2022-07-24T23:54:39;99724.13;;;19.51;56.90
64292;BME280;50628;51.008;13.658;2022-07-24T23:59:40;99723.72;;;19.24;58.04
